createdAt,value
2017-03-05T00:00:05.409Z,72169
2017-03-05T00:00:15.281Z,72175
2017-03-05T00:00:25.459Z,72176
2017-03-05T00:00:36.006Z,72176
2017-03-05T00:00:46.572Z,72173
2017-03-05T00:00:57.100Z,72178
2017-03-05T00:01:07.664Z,72184
2017-03-05T00:01:18.299Z,72179
2017-03-05T00:01:28.847Z,72175
2017-03-05T00:01:39.440Z,72174
2017-03-05T00:01:50.003Z,72181
2017-03-05T00:02:00.560Z,72182
2017-03-05T00:02:10.731Z,72181
2017-03-05T00:02:21.284Z,72177
2017-03-05T00:02:31.846Z,72175
2017-03-05T00:02:42.398Z,72177
2017-03-05T00:02:52.915Z,72172
2017-03-05T00:03:03.456Z,72174
2017-03-05T00:03:14.001Z,72175
2017-03-05T00:03:24.568Z,72170
2017-03-05T00:03:35.161Z,72173
2017-03-05T00:03:45.707Z,72175
2017-03-05T00:03:56.236Z,72171
2017-03-05T00:04:06.813Z,72176
2017-03-05T00:04:16.981Z,72175
2017-03-05T00:04:27.501Z,72186
2017-03-05T00:04:38.058Z,72201
2017-03-05T00:04:48.621Z,72197
2017-03-05T00:04:59.185Z,72196
2017-03-05T00:05:09.371Z,72200
2017-03-05T00:05:19.553Z,72197
2017-03-05T00:05:29.729Z,72197
2017-03-05T00:05:40.257Z,72191
2017-03-05T00:05:50.850Z,72194
2017-03-05T00:06:01.403Z,72193
2017-03-05T00:06:11.993Z,72192
2017-03-05T00:06:22.538Z,72187
2017-03-05T00:06:33.086Z,72182
2017-03-05T00:06:43.276Z,72173
2017-03-05T00:06:53.854Z,72172
2017-03-05T00:07:04.427Z,72170
2017-03-05T00:07:14.995Z,72168
2017-03-05T00:07:25.161Z,72177
2017-03-05T00:07:35.722Z,72181
2017-03-05T00:07:45.873Z,72187
2017-03-05T00:07:56.414Z,72191
2017-03-05T00:08:06.954Z,72190
2017-03-05T00:08:17.132Z,72185
2017-03-05T00:08:27.299Z,72186
2017-03-05T00:08:37.865Z,72183
2017-03-05T00:08:48.437Z,72181
2017-03-05T00:08:58.986Z,72178
2017-03-05T00:09:09.576Z,72182
2017-03-05T00:09:20.091Z,72183
2017-03-05T00:09:29.907Z,72180
2017-03-05T00:09:40.462Z,72181
2017-03-05T00:09:51.029Z,72181
2017-03-05T00:10:01.590Z,72181
2017-03-05T00:10:12.156Z,72181
2017-03-05T00:10:21.947Z,72179
2017-03-05T00:10:32.489Z,72177
2017-03-05T00:10:43.062Z,72185
2017-03-05T00:10:53.612Z,72184
2017-03-05T00:11:04.147Z,72180
2017-03-05T00:11:14.311Z,72180
2017-03-05T00:11:24.845Z,72171
2017-03-05T00:11:35.039Z,72180
2017-03-05T00:11:45.614Z,72175
2017-03-05T00:11:56.154Z,72180
2017-03-05T00:12:06.703Z,72182
2017-03-05T00:12:17.270Z,72181
2017-03-05T00:12:27.828Z,72185
2017-03-05T00:12:38.426Z,72181
2017-03-05T00:12:48.985Z,72186
2017-03-05T00:12:59.574Z,72183
2017-03-05T00:13:10.138Z,72190
2017-03-05T00:13:20.336Z,72189
2017-03-05T00:13:30.901Z,72183
2017-03-05T00:13:41.475Z,72187
2017-03-05T00:13:51.658Z,72184
2017-03-05T00:14:02.190Z,72178
2017-03-05T00:14:12.360Z,72178
2017-03-05T00:14:22.509Z,72174
2017-03-05T00:14:33.034Z,72173
2017-03-05T00:14:43.582Z,72177
2017-03-05T00:14:54.112Z,72175
2017-03-05T00:15:04.661Z,72178
2017-03-05T00:15:15.231Z,72178
2017-03-05T00:15:25.449Z,72176
2017-03-05T00:15:35.979Z,72175
2017-03-05T00:15:46.148Z,72171
2017-03-05T00:15:56.718Z,72173
2017-03-05T00:16:07.273Z,72176
2017-03-05T00:16:17.069Z,72177
2017-03-05T00:16:26.867Z,72178
2017-03-05T00:16:37.050Z,72179
2017-03-05T00:16:47.663Z,72180
2017-03-05T00:16:58.247Z,72177
2017-03-05T00:17:08.804Z,72181
2017-03-05T00:17:19.345Z,72180
2017-03-05T00:17:29.172Z,72183
2017-03-05T00:17:39.740Z,72191
2017-03-05T00:17:50.332Z,72192
2017-03-05T00:18:00.937Z,72192
2017-03-05T00:18:11.519Z,72188
2017-03-05T00:18:22.090Z,72188
2017-03-05T00:18:32.639Z,72183
2017-03-05T00:18:43.198Z,72188
2017-03-05T00:18:53.769Z,72187
2017-03-05T00:19:04.358Z,72182
2017-03-05T00:19:14.905Z,72182
2017-03-05T00:19:25.463Z,72177
2017-03-05T00:19:35.996Z,72177
2017-03-05T00:19:46.217Z,72177
2017-03-05T00:19:56.383Z,72172
2017-03-05T00:20:06.607Z,72173
2017-03-05T00:20:17.149Z,72177
2017-03-05T00:20:27.345Z,72177
2017-03-05T00:20:37.914Z,72183
2017-03-05T00:20:48.445Z,72182
2017-03-05T00:20:58.988Z,72180
2017-03-05T00:21:09.521Z,72184
2017-03-05T00:21:20.050Z,72182
2017-03-05T00:21:30.592Z,72178
2017-03-05T00:21:40.755Z,72171
2017-03-05T00:21:51.338Z,72175
2017-03-05T00:22:01.886Z,72174
2017-03-05T00:22:12.397Z,72172
2017-03-05T00:22:22.598Z,72173
2017-03-05T00:22:33.138Z,72178
2017-03-05T00:22:43.703Z,72182
2017-03-05T00:22:54.248Z,72179
2017-03-05T00:23:04.817Z,72179
2017-03-05T00:23:15.354Z,72179
2017-03-05T00:23:25.960Z,72180
2017-03-05T00:23:36.572Z,72178
2017-03-05T00:23:47.103Z,72183
2017-03-05T00:23:57.662Z,72183
2017-03-05T00:24:07.863Z,72181
2017-03-05T00:24:18.391Z,72183
2017-03-05T00:24:28.915Z,72184
2017-03-05T00:24:39.455Z,72181
2017-03-05T00:24:50.007Z,72184
2017-03-05T00:25:00.586Z,72181
2017-03-05T00:25:10.007Z,72183
2017-03-05T00:25:20.554Z,72186
2017-03-05T00:25:30.732Z,72186
2017-03-05T00:25:41.303Z,72182
2017-03-05T00:25:51.844Z,72182
2017-03-05T00:26:02.394Z,72179
2017-03-05T00:26:12.937Z,72181
2017-03-05T00:26:23.487Z,72181
2017-03-05T00:26:34.061Z,72180
2017-03-05T00:26:44.629Z,72180
2017-03-05T00:26:55.203Z,72180
2017-03-05T00:27:05.759Z,72182
2017-03-05T00:27:15.983Z,72180
2017-03-05T00:27:26.196Z,72180
2017-03-05T00:27:36.727Z,72186
2017-03-05T00:27:47.304Z,72184
2017-03-05T00:27:57.830Z,72186
2017-03-05T00:28:08.387Z,72191
2017-03-05T00:28:18.593Z,72186
2017-03-05T00:28:29.127Z,72185
2017-03-05T00:28:39.701Z,72184
2017-03-05T00:28:50.266Z,72183
2017-03-05T00:29:00.447Z,72184
2017-03-05T00:29:11.020Z,72194
2017-03-05T00:29:21.561Z,72192
2017-03-05T00:29:32.094Z,72187
2017-03-05T00:29:42.631Z,72185
2017-03-05T00:29:53.175Z,72188
2017-03-05T00:30:03.398Z,72175
2017-03-05T00:30:13.578Z,72181
2017-03-05T00:30:24.180Z,72181
2017-03-05T00:30:34.391Z,72180
2017-03-05T00:30:44.933Z,72186
2017-03-05T00:30:55.482Z,72183
2017-03-05T00:31:06.060Z,72183
2017-03-05T00:31:16.614Z,72181
2017-03-05T00:31:26.810Z,72184
2017-03-05T00:31:37.349Z,72189
2017-03-05T00:31:47.903Z,72188
2017-03-05T00:31:58.459Z,72196
2017-03-05T00:32:09.044Z,72193
2017-03-05T00:32:19.217Z,72193
2017-03-05T00:32:29.429Z,72191
2017-03-05T00:32:39.985Z,72190
2017-03-05T00:32:50.527Z,72194
2017-03-05T00:33:00.718Z,72188
2017-03-05T00:33:11.274Z,72189
2017-03-05T00:33:21.854Z,72189
2017-03-05T00:33:32.053Z,72189
2017-03-05T00:33:42.604Z,72186
2017-03-05T00:33:53.198Z,72183
2017-03-05T00:34:03.765Z,72187
2017-03-05T00:34:14.335Z,72186
2017-03-05T00:34:24.529Z,72186
2017-03-05T00:34:35.102Z,72182
2017-03-05T00:34:45.667Z,72178
2017-03-05T00:34:55.853Z,72181
2017-03-05T00:35:06.409Z,72187
2017-03-05T00:35:16.961Z,72184
2017-03-05T00:35:26.797Z,72185
2017-03-05T00:35:36.615Z,72188
2017-03-05T00:35:47.190Z,72183
2017-03-05T00:35:57.763Z,72182
2017-03-05T00:36:08.316Z,72184
2017-03-05T00:36:18.535Z,72181
2017-03-05T00:36:29.085Z,72182
2017-03-05T00:36:39.617Z,72186
2017-03-05T00:36:50.179Z,72184
2017-03-05T00:37:00.706Z,72183
2017-03-05T00:37:10.886Z,72186
2017-03-05T00:37:21.068Z,72182
2017-03-05T00:37:31.259Z,72184
2017-03-05T00:37:41.811Z,72186
2017-03-05T00:37:52.376Z,72191
2017-03-05T00:38:02.882Z,72182
2017-03-05T00:38:13.430Z,72188
2017-03-05T00:38:22.858Z,72188
2017-03-05T00:38:33.018Z,72182
2017-03-05T00:38:43.598Z,72182
2017-03-05T00:38:54.150Z,72185
2017-03-05T00:39:04.707Z,72186
2017-03-05T00:39:15.257Z,72185
2017-03-05T00:39:25.434Z,72186
2017-03-05T00:39:35.987Z,72183
2017-03-05T00:39:46.139Z,72190
2017-03-05T00:39:56.681Z,72193
2017-03-05T00:40:07.232Z,72191
2017-03-05T00:40:17.812Z,72194
2017-03-05T00:40:28.030Z,72192
2017-03-05T00:40:38.572Z,72190
2017-03-05T00:40:49.158Z,72193
2017-03-05T00:40:59.699Z,72191
2017-03-05T00:41:10.235Z,72197
2017-03-05T00:41:20.787Z,72193
2017-03-05T00:41:31.339Z,72198
2017-03-05T00:41:41.908Z,72202
2017-03-05T00:41:52.454Z,72203
2017-03-05T00:42:03.004Z,72202
2017-03-05T00:42:13.183Z,72207
2017-03-05T00:42:23.726Z,72201
2017-03-05T00:42:34.285Z,72207
2017-03-05T00:42:44.851Z,72208
2017-03-05T00:42:55.392Z,72204
2017-03-05T00:43:05.941Z,72202
2017-03-05T00:43:16.159Z,72207
2017-03-05T00:43:26.718Z,72206
2017-03-05T00:43:36.947Z,72206
2017-03-05T00:43:47.541Z,72208
2017-03-05T00:43:58.093Z,72207
2017-03-05T00:44:08.677Z,72206
2017-03-05T00:44:18.878Z,72204
2017-03-05T00:44:29.404Z,72203
2017-03-05T00:44:40.008Z,72199
2017-03-05T00:44:50.556Z,72197
2017-03-05T00:45:00.757Z,72202
2017-03-05T00:45:11.307Z,72208
2017-03-05T00:45:21.855Z,72201
2017-03-05T00:45:32.400Z,72202
2017-03-05T00:45:42.943Z,72200
2017-03-05T00:45:53.481Z,72198
2017-03-05T00:46:04.024Z,72196
2017-03-05T00:46:13.849Z,72196
2017-03-05T00:46:24.037Z,72198
2017-03-05T00:46:34.608Z,72198
2017-03-05T00:46:45.135Z,72197
2017-03-05T00:46:55.712Z,72199
2017-03-05T00:47:06.248Z,72198
2017-03-05T00:47:16.062Z,72200
2017-03-05T00:47:26.651Z,72195
2017-03-05T00:47:37.168Z,72199
2017-03-05T00:47:47.701Z,72199
2017-03-05T00:47:58.279Z,72199
2017-03-05T00:48:08.807Z,72203
2017-03-05T00:48:18.974Z,72200
2017-03-05T00:48:29.536Z,72197
2017-03-05T00:48:40.079Z,72199
2017-03-05T00:48:50.674Z,72199
2017-03-05T00:49:00.860Z,72196
2017-03-05T00:49:11.435Z,72195
2017-03-05T00:49:21.268Z,72194
2017-03-05T00:49:31.823Z,72197
2017-03-05T00:49:42.373Z,72197
2017-03-05T00:49:52.921Z,72193
2017-03-05T00:50:03.092Z,72195
2017-03-05T00:50:13.655Z,72196
2017-03-05T00:50:24.235Z,72198
2017-03-05T00:50:34.775Z,72194
2017-03-05T00:50:45.322Z,72195
2017-03-05T00:50:55.886Z,72196
2017-03-05T00:51:06.429Z,72195
2017-03-05T00:51:16.576Z,72194
2017-03-05T00:51:26.747Z,72195
2017-03-05T00:51:37.327Z,72195
2017-03-05T00:51:47.527Z,72196
2017-03-05T00:51:58.089Z,72198
2017-03-05T00:52:08.263Z,72197
2017-03-05T00:52:18.428Z,72196
2017-03-05T00:52:28.620Z,72197
2017-03-05T00:52:39.157Z,72195
2017-03-05T00:52:49.727Z,72196
2017-03-05T00:53:00.292Z,72201
2017-03-05T00:53:10.840Z,72200
2017-03-05T00:53:21.394Z,72201
2017-03-05T00:53:31.557Z,72197
2017-03-05T00:53:42.089Z,72199
2017-03-05T00:53:52.641Z,72199
2017-03-05T00:54:03.170Z,72200
2017-03-05T00:54:12.979Z,72198
2017-03-05T00:54:23.556Z,72203
2017-03-05T00:54:34.105Z,72201
2017-03-05T00:54:44.689Z,72198
2017-03-05T00:54:55.251Z,72200
2017-03-05T00:55:05.417Z,72201
2017-03-05T00:55:15.977Z,72195
2017-03-05T00:55:26.520Z,72203
2017-03-05T00:55:37.098Z,72197
2017-03-05T00:55:47.650Z,72198
2017-03-05T00:55:58.207Z,72202
2017-03-05T00:56:08.375Z,72195
2017-03-05T00:56:18.953Z,72196
2017-03-05T00:56:29.154Z,72198
2017-03-05T00:56:39.720Z,72198
2017-03-05T00:56:50.281Z,72199
2017-03-05T00:57:00.823Z,72204
2017-03-05T00:57:11.386Z,72201
2017-03-05T00:57:21.579Z,72202
2017-03-05T00:57:31.755Z,72203
2017-03-05T00:57:42.295Z,72199
2017-03-05T00:57:52.853Z,72202
2017-03-05T00:58:03.364Z,72204
2017-03-05T00:58:13.515Z,72203
2017-03-05T00:58:23.700Z,72202
2017-03-05T00:58:34.287Z,72208
2017-03-05T00:58:44.833Z,72201
2017-03-05T00:58:55.005Z,72202
2017-03-05T00:59:05.590Z,72199
2017-03-05T00:59:16.125Z,72202
2017-03-05T00:59:26.291Z,72202
2017-03-05T00:59:36.875Z,72200
2017-03-05T00:59:47.436Z,72201
2017-03-05T00:59:58.035Z,72207
2017-03-05T01:00:07.829Z,72209
2017-03-05T01:00:18.359Z,72211
2017-03-05T01:00:28.899Z,72208
2017-03-05T01:00:39.454Z,72209
2017-03-05T01:00:50.017Z,72210
2017-03-05T01:01:00.544Z,72206
2017-03-05T01:01:11.107Z,72204
2017-03-05T01:01:21.621Z,72204
2017-03-05T01:01:32.156Z,72202
2017-03-05T01:01:42.710Z,72200
2017-03-05T01:01:53.287Z,72206
2017-03-05T01:02:03.495Z,72205
2017-03-05T01:02:14.006Z,72204
2017-03-05T01:02:24.186Z,72204
2017-03-05T01:02:34.394Z,72202
2017-03-05T01:02:44.913Z,72206
2017-03-05T01:02:55.483Z,72209
2017-03-05T01:03:06.038Z,72201
2017-03-05T01:03:16.201Z,72202
2017-03-05T01:03:26.417Z,72204
2017-03-05T01:03:36.968Z,72204
2017-03-05T01:03:47.515Z,72206
2017-03-05T01:03:57.694Z,72204
2017-03-05T01:04:08.232Z,72200
2017-03-05T01:04:18.766Z,72199
2017-03-05T01:04:28.940Z,72198
2017-03-05T01:04:39.504Z,72202
2017-03-05T01:04:50.083Z,72202
2017-03-05T01:05:00.635Z,72201
2017-03-05T01:05:10.799Z,72203
2017-03-05T01:05:21.363Z,72203
2017-03-05T01:05:31.900Z,72206
2017-03-05T01:05:42.459Z,72203
2017-03-05T01:05:52.990Z,72204
2017-03-05T01:06:03.598Z,72204
2017-03-05T01:06:13.764Z,72202
2017-03-05T01:06:23.954Z,72202
2017-03-05T01:06:34.513Z,72207
2017-03-05T01:06:45.066Z,72205
2017-03-05T01:06:55.603Z,72208
2017-03-05T01:07:06.123Z,72211
2017-03-05T01:07:16.666Z,72202
2017-03-05T01:07:27.209Z,72207
2017-03-05T01:07:37.796Z,72207
2017-03-05T01:07:48.305Z,72205
2017-03-05T01:07:58.865Z,72204
2017-03-05T01:08:09.409Z,72204
2017-03-05T01:08:19.237Z,72200
2017-03-05T01:08:29.797Z,72203
2017-03-05T01:08:40.352Z,72204
2017-03-05T01:08:50.883Z,72203
2017-03-05T01:09:01.468Z,72202
2017-03-05T01:09:12.004Z,72201
2017-03-05T01:09:22.580Z,72202
2017-03-05T01:09:33.115Z,72201
2017-03-05T01:09:43.647Z,72205
2017-03-05T01:09:54.247Z,72204
2017-03-05T01:10:04.789Z,72204
2017-03-05T01:10:15.321Z,72207
2017-03-05T01:10:25.138Z,72207
2017-03-05T01:10:35.721Z,72206
2017-03-05T01:10:46.295Z,72209
2017-03-05T01:10:56.833Z,72209
2017-03-05T01:11:07.425Z,72208
2017-03-05T01:11:17.951Z,72208
2017-03-05T01:11:28.517Z,72209
2017-03-05T01:11:39.059Z,72205
2017-03-05T01:11:49.593Z,72206
2017-03-05T01:12:00.111Z,72209
2017-03-05T01:12:10.321Z,72206
2017-03-05T01:12:20.877Z,72207
2017-03-05T01:12:31.041Z,72208
2017-03-05T01:12:41.591Z,72209
2017-03-05T01:12:52.121Z,72208
2017-03-05T01:13:02.645Z,72208
2017-03-05T01:13:12.826Z,72210
2017-03-05T01:13:23.012Z,72211
2017-03-05T01:13:33.568Z,72210
2017-03-05T01:13:44.112Z,72212
2017-03-05T01:13:54.669Z,72210
2017-03-05T01:14:05.195Z,72210
2017-03-05T01:14:15.738Z,72211
2017-03-05T01:14:25.927Z,72212
2017-03-05T01:14:36.076Z,72211
2017-03-05T01:14:46.692Z,72210
2017-03-05T01:14:57.235Z,72210
2017-03-05T01:15:07.803Z,72210
2017-03-05T01:15:18.367Z,72215
2017-03-05T01:15:28.935Z,72214
2017-03-05T01:15:39.521Z,72212
2017-03-05T01:15:50.071Z,72214
2017-03-05T01:16:00.647Z,72214
2017-03-05T01:16:11.154Z,72211
2017-03-05T01:16:21.317Z,72213
2017-03-05T01:16:31.864Z,72212
2017-03-05T01:16:42.416Z,72213
2017-03-05T01:16:52.956Z,72214
2017-03-05T01:17:03.510Z,72215
2017-03-05T01:17:13.711Z,72212
2017-03-05T01:17:24.264Z,72212
2017-03-05T01:17:34.462Z,72212
2017-03-05T01:17:45.008Z,72217
2017-03-05T01:17:55.630Z,72214
2017-03-05T01:18:06.174Z,72217
2017-03-05T01:18:16.761Z,72215
2017-03-05T01:18:27.331Z,72216
2017-03-05T01:18:37.860Z,72215
2017-03-05T01:18:48.399Z,72216
2017-03-05T01:18:58.946Z,72220
2017-03-05T01:19:09.493Z,72215
2017-03-05T01:19:19.681Z,72215
2017-03-05T01:19:30.218Z,72216
2017-03-05T01:19:40.844Z,72217
2017-03-05T01:19:51.028Z,72218
2017-03-05T01:20:01.576Z,72214
2017-03-05T01:20:11.397Z,72215
2017-03-05T01:20:21.243Z,72215
2017-03-05T01:20:31.794Z,72216
2017-03-05T01:20:42.345Z,72213
2017-03-05T01:20:52.901Z,72211
2017-03-05T01:21:03.480Z,72216
2017-03-05T01:21:14.003Z,72215
2017-03-05T01:21:24.552Z,72214
2017-03-05T01:21:35.128Z,72216
2017-03-05T01:21:45.694Z,72217
2017-03-05T01:21:56.241Z,72214
2017-03-05T01:22:06.792Z,72217
2017-03-05T01:22:16.955Z,72211
2017-03-05T01:22:27.131Z,72215
2017-03-05T01:22:37.716Z,72212
2017-03-05T01:22:48.265Z,72211
2017-03-05T01:22:58.843Z,72210
2017-03-05T01:23:09.410Z,72212
2017-03-05T01:23:19.943Z,72208
2017-03-05T01:23:30.522Z,72208
2017-03-05T01:23:41.045Z,72212
2017-03-05T01:23:51.582Z,72206
2017-03-05T01:24:02.161Z,72209
2017-03-05T01:24:12.338Z,72205
2017-03-05T01:24:22.596Z,72208
2017-03-05T01:24:33.151Z,72212
2017-03-05T01:24:43.725Z,72213
2017-03-05T01:24:54.287Z,72210
2017-03-05T01:25:04.826Z,72211
2017-03-05T01:25:15.358Z,72208
2017-03-05T01:25:25.903Z,72209
2017-03-05T01:25:36.496Z,72210
2017-03-05T01:25:47.079Z,72210
2017-03-05T01:25:57.628Z,72209
2017-03-05T01:26:08.224Z,72210
2017-03-05T01:26:18.420Z,72208
2017-03-05T01:26:28.990Z,72210
2017-03-05T01:26:39.575Z,72205
2017-03-05T01:26:50.140Z,72210
2017-03-05T01:27:00.373Z,72207
2017-03-05T01:27:10.957Z,72210
2017-03-05T01:27:21.120Z,72209
2017-03-05T01:27:31.654Z,72203
2017-03-05T01:27:41.829Z,72206
2017-03-05T01:27:52.380Z,72208
2017-03-05T01:28:02.926Z,72208
2017-03-05T01:28:12.734Z,72205
2017-03-05T01:28:22.905Z,72208
2017-03-05T01:28:33.450Z,72212
2017-03-05T01:28:43.999Z,72205
2017-03-05T01:28:54.196Z,72206
2017-03-05T01:29:04.795Z,72209
2017-03-05T01:29:15.325Z,72206
2017-03-05T01:29:25.532Z,72203
2017-03-05T01:29:36.089Z,72205
2017-03-05T01:29:46.642Z,72206
2017-03-05T01:29:57.189Z,72208
2017-03-05T01:30:07.726Z,72207
2017-03-05T01:30:18.289Z,72210
2017-03-05T01:30:28.827Z,72205
2017-03-05T01:30:39.383Z,72206
2017-03-05T01:30:49.929Z,72206
2017-03-05T01:31:00.491Z,72207
2017-03-05T01:31:10.674Z,72203
2017-03-05T01:31:21.209Z,72204
2017-03-05T01:31:31.770Z,72207
2017-03-05T01:31:42.302Z,72205
2017-03-05T01:31:52.835Z,72206
2017-03-05T01:32:03.410Z,72209
2017-03-05T01:32:13.980Z,72206
2017-03-05T01:32:24.158Z,72208
2017-03-05T01:32:34.721Z,72208
2017-03-05T01:32:45.299Z,72206
2017-03-05T01:32:55.857Z,72206
2017-03-05T01:33:06.443Z,72208
2017-03-05T01:33:17.002Z,72209
2017-03-05T01:33:27.199Z,72210
2017-03-05T01:33:37.769Z,72213
2017-03-05T01:33:48.324Z,72206
2017-03-05T01:33:58.878Z,72209
2017-03-05T01:34:09.466Z,72208
2017-03-05T01:34:20.036Z,72207
2017-03-05T01:34:30.239Z,72208
2017-03-05T01:34:40.789Z,72208
2017-03-05T01:34:51.375Z,72205
2017-03-05T01:35:01.886Z,72206
2017-03-05T01:35:12.431Z,72207
2017-03-05T01:35:23.002Z,72207
2017-03-05T01:35:33.568Z,72207
2017-03-05T01:35:44.097Z,72209
2017-03-05T01:35:54.654Z,72210
2017-03-05T01:36:05.198Z,72210
2017-03-05T01:36:15.753Z,72208
2017-03-05T01:36:26.758Z,72206
2017-03-05T01:36:37.316Z,72210
2017-03-05T01:36:47.879Z,72209
2017-03-05T01:36:58.420Z,72208
2017-03-05T01:37:08.999Z,72205
2017-03-05T01:37:19.539Z,72208
2017-03-05T01:37:30.090Z,72207
2017-03-05T01:37:40.621Z,72209
2017-03-05T01:37:51.174Z,72210
2017-03-05T01:38:01.731Z,72206
2017-03-05T01:38:11.903Z,72202
2017-03-05T01:38:22.462Z,72206
2017-03-05T01:38:33.039Z,72205
2017-03-05T01:38:43.592Z,72204
2017-03-05T01:38:54.145Z,72206
2017-03-05T01:39:04.323Z,72204
2017-03-05T01:39:14.859Z,72203
2017-03-05T01:39:25.077Z,72203
2017-03-05T01:39:35.654Z,72205
2017-03-05T01:39:46.205Z,72207
2017-03-05T01:39:56.737Z,72203
2017-03-05T01:40:07.311Z,72209
2017-03-05T01:40:17.507Z,72206
2017-03-05T01:40:28.028Z,72204
2017-03-05T01:40:38.597Z,72202
2017-03-05T01:40:49.157Z,72207
2017-03-05T01:40:59.727Z,72203
2017-03-05T01:41:10.300Z,72201
2017-03-05T01:41:20.466Z,72199
2017-03-05T01:41:30.995Z,72203
2017-03-05T01:41:41.570Z,72203
2017-03-05T01:41:52.098Z,72199
2017-03-05T01:42:02.663Z,72201
2017-03-05T01:42:13.207Z,72200
2017-03-05T01:42:23.738Z,72198
2017-03-05T01:42:34.311Z,72198
2017-03-05T01:42:44.870Z,72203
2017-03-05T01:42:55.421Z,72196
2017-03-05T01:43:05.957Z,72197
2017-03-05T01:43:16.490Z,72196
2017-03-05T01:43:27.062Z,72199
2017-03-05T01:43:37.630Z,72199
2017-03-05T01:43:48.183Z,72203
2017-03-05T01:43:58.774Z,72199
2017-03-05T01:44:09.321Z,72199
2017-03-05T01:44:19.874Z,72199
2017-03-05T01:44:30.405Z,72201
2017-03-05T01:44:40.943Z,72201
2017-03-05T01:44:51.507Z,72201
2017-03-05T01:45:02.128Z,72203
2017-03-05T01:45:12.737Z,72203
2017-03-05T01:45:22.915Z,72203
2017-03-05T01:45:33.475Z,72202
2017-03-05T01:45:44.012Z,72203
2017-03-05T01:45:54.558Z,72200
2017-03-05T01:46:05.115Z,72207
2017-03-05T01:46:15.306Z,72207
2017-03-05T01:46:25.826Z,72204
2017-03-05T01:46:36.416Z,72204
2017-03-05T01:46:46.989Z,72204
2017-03-05T01:46:57.561Z,72204
2017-03-05T01:47:08.093Z,72202
2017-03-05T01:47:18.290Z,72202
2017-03-05T01:47:28.900Z,72201
2017-03-05T01:47:39.115Z,72200
2017-03-05T01:47:49.657Z,72204
2017-03-05T01:48:00.181Z,72201
2017-03-05T01:48:10.710Z,72198
2017-03-05T01:48:20.888Z,72204
2017-03-05T01:48:31.415Z,72203
2017-03-05T01:48:41.963Z,72202
2017-03-05T01:48:52.526Z,72201
2017-03-05T01:49:03.112Z,72207
2017-03-05T01:49:13.654Z,72200
2017-03-05T01:49:24.246Z,72198
2017-03-05T01:49:34.787Z,72201
2017-03-05T01:49:44.964Z,72204
2017-03-05T01:49:55.538Z,72201
2017-03-05T01:50:05.744Z,72203
2017-03-05T01:50:15.939Z,72204
2017-03-05T01:50:26.498Z,72201
2017-03-05T01:50:36.670Z,72204
2017-03-05T01:50:47.209Z,72202
2017-03-05T01:50:57.747Z,72203
2017-03-05T01:51:08.305Z,72204
2017-03-05T01:51:18.834Z,72201
2017-03-05T01:51:29.413Z,72206
2017-03-05T01:51:39.605Z,72205
2017-03-05T01:51:50.148Z,72199
2017-03-05T01:52:00.686Z,72201
2017-03-05T01:52:10.863Z,72202
2017-03-05T01:52:21.416Z,72202
2017-03-05T01:52:31.984Z,72201
2017-03-05T01:52:42.506Z,72202
2017-03-05T01:52:53.016Z,72205
2017-03-05T01:53:03.547Z,72200
2017-03-05T01:53:14.089Z,72198
2017-03-05T01:53:24.661Z,72203
2017-03-05T01:53:35.213Z,72201
2017-03-05T01:53:45.780Z,72204
2017-03-05T01:53:56.359Z,72202
2017-03-05T01:54:06.927Z,72201
2017-03-05T01:54:17.456Z,72202
2017-03-05T01:54:28.060Z,72205
2017-03-05T01:54:38.589Z,72200
2017-03-05T01:54:49.118Z,72202
2017-03-05T01:54:59.697Z,72203
2017-03-05T01:55:10.275Z,72203
2017-03-05T01:55:20.469Z,72203
2017-03-05T01:55:31.038Z,72202
2017-03-05T01:55:41.614Z,72205
2017-03-05T01:55:52.178Z,72201
2017-03-05T01:56:02.742Z,72201
2017-03-05T01:56:12.944Z,72199
2017-03-05T01:56:23.120Z,72199
2017-03-05T01:56:33.665Z,72203
2017-03-05T01:56:44.191Z,72201
2017-03-05T01:56:54.754Z,72202
2017-03-05T01:57:05.315Z,72203
2017-03-05T01:57:15.881Z,72202
2017-03-05T01:57:26.415Z,72199
2017-03-05T01:57:36.982Z,72202
2017-03-05T01:57:47.571Z,72203
2017-03-05T01:57:58.159Z,72204
2017-03-05T01:58:08.741Z,72204
2017-03-05T01:58:19.281Z,72203
2017-03-05T01:58:29.835Z,72207
2017-03-05T01:58:40.367Z,72201
2017-03-05T01:58:50.913Z,72200
2017-03-05T01:59:01.096Z,72204
2017-03-05T01:59:11.660Z,72207
2017-03-05T01:59:21.829Z,72202
2017-03-05T01:59:32.021Z,72204
2017-03-05T01:59:42.585Z,72210
2017-03-05T01:59:53.147Z,72208
2017-03-05T02:00:03.304Z,72205
2017-03-05T02:00:13.850Z,72210
2017-03-05T02:00:24.412Z,72206
2017-03-05T02:00:34.965Z,72210
2017-03-05T02:00:45.581Z,72212
2017-03-05T02:00:56.148Z,72209
2017-03-05T02:01:06.686Z,72207
2017-03-05T02:01:17.240Z,72210
2017-03-05T02:01:27.821Z,72209
2017-03-05T02:01:38.380Z,72204
2017-03-05T02:01:48.955Z,72211
2017-03-05T02:01:59.508Z,72210
2017-03-05T02:02:10.045Z,72212
2017-03-05T02:02:20.593Z,72212
2017-03-05T02:02:31.161Z,72206
2017-03-05T02:02:41.712Z,72206
2017-03-05T02:02:52.282Z,72206
2017-03-05T02:03:02.880Z,72204
2017-03-05T02:03:13.441Z,72200
2017-03-05T02:03:23.617Z,72205
2017-03-05T02:03:34.158Z,72206
2017-03-05T02:03:44.690Z,72201
2017-03-05T02:03:55.265Z,72201
2017-03-05T02:04:05.802Z,72199
2017-03-05T02:04:15.948Z,72202
2017-03-05T02:04:26.502Z,72201
2017-03-05T02:04:36.671Z,72204
2017-03-05T02:04:47.226Z,72204
2017-03-05T02:04:57.785Z,72201
2017-03-05T02:05:08.415Z,72202
2017-03-05T02:05:18.959Z,72201
2017-03-05T02:05:29.515Z,72205
2017-03-05T02:05:40.081Z,72209
2017-03-05T02:05:50.675Z,72205
2017-03-05T02:06:01.242Z,72203
2017-03-05T02:06:11.789Z,72205
2017-03-05T02:06:21.947Z,72206
2017-03-05T02:06:32.499Z,72202
2017-03-05T02:06:43.039Z,72202
2017-03-05T02:06:53.561Z,72204
2017-03-05T02:07:04.109Z,72203
2017-03-05T02:07:14.641Z,72206
2017-03-05T02:07:25.181Z,72204
2017-03-05T02:07:35.789Z,72204
2017-03-05T02:07:46.333Z,72203
2017-03-05T02:07:56.897Z,72203
2017-03-05T02:08:07.474Z,72204
2017-03-05T02:08:18.039Z,72207
2017-03-05T02:08:28.569Z,72207
2017-03-05T02:08:39.098Z,72206
2017-03-05T02:08:49.662Z,72208
2017-03-05T02:09:00.232Z,72204
2017-03-05T02:09:10.820Z,72203
2017-03-05T02:09:20.998Z,72203
2017-03-05T02:09:31.565Z,72207
2017-03-05T02:09:42.087Z,72210
2017-03-05T02:09:52.675Z,72210
2017-03-05T02:10:03.238Z,72206
2017-03-05T02:10:13.867Z,72206
2017-03-05T02:10:24.445Z,72207
2017-03-05T02:10:34.991Z,72207
2017-03-05T02:10:45.181Z,72206
2017-03-05T02:10:55.753Z,72208
2017-03-05T02:11:05.947Z,72203
2017-03-05T02:11:16.499Z,72209
2017-03-05T02:11:27.072Z,72209
2017-03-05T02:11:37.652Z,72203
2017-03-05T02:11:48.191Z,72210
2017-03-05T02:11:58.730Z,72211
2017-03-05T02:12:09.280Z,72204
2017-03-05T02:12:19.454Z,72209
2017-03-05T02:12:29.991Z,72205
2017-03-05T02:12:40.521Z,72205
2017-03-05T02:12:51.106Z,72206
2017-03-05T02:13:01.650Z,72210
2017-03-05T02:13:12.169Z,72209
2017-03-05T02:13:22.713Z,72209
2017-03-05T02:13:33.244Z,72207
2017-03-05T02:13:43.795Z,72208
2017-03-05T02:13:54.360Z,72210
2017-03-05T02:14:04.938Z,72206
2017-03-05T02:14:15.142Z,72208
2017-03-05T02:14:24.221Z,72212
2017-03-05T02:14:34.778Z,72209
2017-03-05T02:14:45.303Z,72211